Time,TemperatureF,DewpointF,PressureIn,WindDirection,WindDirectionDegrees,WindSpeedMPH,WindSpeedGustMPH,Humidity,HourlyPrecipIn,Conditions,Clouds,dailyrainin,SoftwareType,DateUTC
2013-01-11 00:04:00,50.2,47.7,29.79,SW,225,5.0,8.0,91,0.00,,,0.41,meteohub,2013-01-11 06:04:00,
2013-01-11 00:09:00,50.0,47.5,29.79,South,180,6.0,7.0,91,0.00,,,0.00,meteohub,2013-01-11 06:09:00,
2013-01-11 00:14:00,49.8,46.9,29.79,SSW,203,7.0,7.0,90,0.00,,,0.00,meteohub,2013-01-11 06:14:00,
2013-01-11 00:19:00,49.6,46.8,29.79,SSE,158,4.0,6.0,90,0.00,,,0.00,meteohub,2013-01-11 06:19:00,
2013-01-11 00:24:00,49.6,46.8,29.79,SSE,158,9.0,9.0,90,0.00,,,0.00,meteohub,2013-01-11 06:24:00,
2013-01-11 00:29:00,49.8,47.3,29.79,South,180,6.0,9.0,91,0.00,,,0.00,meteohub,2013-01-11 06:29:00,
2013-01-11 00:34:00,49.6,46.8,29.79,WSW,248,7.0,9.0,90,0.00,,,0.00,meteohub,2013-01-11 06:34:00,
2013-01-11 00:39:00,49.5,46.9,29.79,SSW,203,8.0,9.0,91,0.00,,,0.00,meteohub,2013-01-11 06:39:00,
2013-01-11 00:44:00,49.5,46.6,29.79,SSW,203,7.0,8.0,90,0.00,,,0.00,meteohub,2013-01-11 06:44:00,
2013-01-11 00:49:00,49.5,46.6,29.79,SW,225,7.0,8.0,90,0.00,,,0.00,meteohub,2013-01-11 06:49:00,
2013-01-11 00:54:00,49.6,46.8,29.80,SSW,203,7.0,8.0,90,0.00,,,0.00,meteohub,2013-01-11 06:54:00,
2013-01-11 00:59:00,49.6,46.8,29.80,SSW,203,10.0,10.0,90,0.00,,,0.00,meteohub,2013-01-11 06:59:00,
2013-01-11 01:04:00,49.6,46.8,29.80,SW,225,3.0,10.0,90,0.00,,,0.00,meteohub,2013-01-11 07:04:00,
2013-01-11 01:09:00,49.8,46.9,29.81,SSW,203,5.0,10.0,90,0.00,,,0.00,meteohub,2013-01-11 07:09:00,
2013-01-11 01:14:00,49.8,46.9,29.81,NW,315,4.0,10.0,90,0.00,,,0.00,meteohub,2013-01-11 07:14:00,
2013-01-11 01:19:00,49.6,46.8,29.81,NE,45,8.0,10.0,90,0.00,,,0.00,meteohub,2013-01-11 07:19:00,
2013-01-11 01:24:00,49.8,46.9,29.81,South,180,11.0,11.0,90,0.00,,,0.00,meteohub,2013-01-11 07:24:00,
2013-01-11 01:29:00,49.6,46.8,29.81,South,180,5.0,9.0,90,0.00,,,0.00,meteohub,2013-01-11 07:29:00,
2013-01-11 01:34:00,49.6,46.8,29.81,SW,225,7.0,11.0,90,0.00,,,0.00,meteohub,2013-01-11 07:34:00,
2013-01-11 01:39:00,49.8,46.9,29.81,South,180,6.0,11.0,90,0.00,,,0.00,meteohub,2013-01-11 07:39:00,
2013-01-11 01:44:00,49.6,46.8,29.81,SW,225,6.0,9.0,90,0.00,,,0.00,meteohub,2013-01-11 07:44:00,
2013-01-11 01:49:00,49.8,46.9,29.80,SW,225,4.0,9.0,90,0.00,,,0.00,meteohub,2013-01-11 07:49:00,
2013-01-11 01:54:00,49.8,46.9,29.80,SW,225,5.0,9.0,90,0.00,,,0.00,meteohub,2013-01-11 07:54:00,
2013-01-11 01:59:00,49.8,46.9,29.80,South,180,7.0,9.0,90,0.00,,,0.00,meteohub,2013-01-11 07:59:00,
2013-01-11 02:04:00,49.6,46.8,29.80,SSW,203,6.0,10.0,90,0.00,,,0.00,meteohub,2013-01-11 08:04:00,
2013-01-11 02:09:00,49.5,46.6,29.80,SSW,203,5.0,10.0,90,0.00,,,0.00,meteohub,2013-01-11 08:09:00,
2013-01-11 02:14:00,49.5,46.6,29.83,South,180,5.0,10.0,90,0.00,,,0.00,meteohub,2013-01-11 08:14:00,
2013-01-11 02:19:00,49.5,46.6,29.83,SE,135,3.0,7.0,90,0.00,,,0.00,meteohub,2013-01-11 08:19:00,
2013-01-11 02:24:00,49.5,46.6,29.83,NNE,23,5.0,7.0,90,0.00,,,0.00,meteohub,2013-01-11 08:24:00,
2013-01-11 02:29:00,49.5,46.6,29.83,South,180,8.0,8.0,90,0.00,,,0.00,meteohub,2013-01-11 08:29:00,
2013-01-11 02:34:00,49.3,46.4,29.79,South,180,5.0,8.0,90,0.00,,,0.00,meteohub,2013-01-11 08:34:00,
2013-01-11 02:39:00,49.3,46.4,29.79,SW,225,7.0,12.0,90,0.00,,,0.00,meteohub,2013-01-11 08:39:00,
2013-01-11 02:44:00,49.3,46.4,29.79,SW,225,5.0,12.0,90,0.00,,,0.00,meteohub,2013-01-11 08:44:00,
2013-01-11 02:49:00,49.3,46.4,29.82,SSW,203,7.0,12.0,90,0.00,,,0.00,meteohub,2013-01-11 08:49:00,
2013-01-11 02:54:00,49.3,46.4,29.82,South,180,4.0,8.0,90,0.00,,,0.00,meteohub,2013-01-11 08:54:00,
2013-01-11 02:59:00,49.3,46.4,29.82,SW,225,8.0,8.0,90,0.00,,,0.00,meteohub,2013-01-11 08:59:00,
2013-01-11 03:04:00,49.3,46.2,29.82,WSW,248,7.0,7.0,89,0.00,,,0.00,meteohub,2013-01-11 09:04:00,
2013-01-11 03:09:00,49.3,46.2,29.82,SW,225,3.0,8.0,89,0.00,,,0.00,meteohub,2013-01-11 09:09:00,
2013-01-11 03:14:00,49.3,46.2,29.80,South,180,9.0,9.0,89,0.00,,,0.00,meteohub,2013-01-11 09:14:00,
2013-01-11 03:19:00,49.3,46.2,29.80,South,180,4.0,8.0,89,0.00,,,0.00,meteohub,2013-01-11 09:19:00,
2013-01-11 03:24:00,49.3,46.2,29.80,SW,225,8.0,9.0,89,0.00,,,0.00,meteohub,2013-01-11 09:24:00,
2013-01-11 03:29:00,49.3,46.2,29.81,NNE,23,9.0,9.0,89,0.00,,,0.00,meteohub,2013-01-11 09:29:00,
2013-01-11 03:34:00,49.3,46.2,29.81,South,180,5.0,8.0,89,0.00,,,0.00,meteohub,2013-01-11 09:34:00,
2013-01-11 03:39:00,49.3,46.2,29.81,SW,225,4.0,9.0,89,0.00,,,0.00,meteohub,2013-01-11 09:39:00,
2013-01-11 03:44:00,49.3,46.2,29.81,South,180,11.0,11.0,89,0.00,,,0.00,meteohub,2013-01-11 09:44:00,
2013-01-11 03:49:00,49.3,46.2,29.81,South,180,6.0,11.0,89,0.00,,,0.00,meteohub,2013-01-11 09:49:00,
2013-01-11 03:54:00,49.3,46.2,29.82,SSW,203,4.0,11.0,89,0.00,,,0.00,meteohub,2013-01-11 09:54:00,
2013-01-11 03:59:00,49.3,46.2,29.82,WSW,248,10.0,11.0,89,0.00,,,0.00,meteohub,2013-01-11 09:59:00,
2013-01-11 04:04:00,49.3,46.2,29.82,SW,225,7.0,10.0,89,0.00,,,0.00,meteohub,2013-01-11 10:04:00,
2013-01-11 04:09:00,49.3,46.2,29.82,SW,225,5.0,10.0,89,0.00,,,0.00,meteohub,2013-01-11 10:09:00,
2013-01-11 04:14:00,49.5,46.4,29.80,SSW,203,12.0,12.0,89,0.00,,,0.00,meteohub,2013-01-11 10:14:00,
2013-01-11 04:19:00,49.3,46.2,29.81,SSE,158,3.0,11.0,89,0.00,,,0.00,meteohub,2013-01-11 10:19:00,
2013-01-11 04:24:00,49.3,46.2,29.81,WSW,248,2.0,12.0,89,0.00,,,0.00,meteohub,2013-01-11 10:24:00,
2013-01-11 04:29:00,49.1,46.0,29.81,SSE,158,0.0,12.0,89,0.00,,,0.00,meteohub,2013-01-11 10:29:00,
2013-01-11 04:34:00,49.1,46.0,29.81,SSW,203,7.0,8.0,89,0.00,,,0.00,meteohub,2013-01-11 10:34:00,
2013-01-11 04:39:00,49.1,46.0,29.81,SSE,158,3.0,7.0,89,0.00,,,0.00,meteohub,2013-01-11 10:39:00,
2013-01-11 04:44:00,48.9,45.9,29.81,SE,135,0.0,7.0,89,0.00,,,0.00,meteohub,2013-01-11 10:44:00,
2013-01-11 04:49:00,48.9,45.9,29.81,South,180,3.0,7.0,89,0.00,,,0.00,meteohub,2013-01-11 10:49:00,
2013-01-11 04:54:00,48.6,45.5,29.79,South,180,2.0,3.0,89,0.00,,,0.00,meteohub,2013-01-11 10:54:00,
2013-01-11 04:59:00,48.4,45.3,29.79,SW,225,4.0,4.0,89,0.00,,,0.00,meteohub,2013-01-11 10:59:00,
2013-01-11 05:04:00,48.4,45.3,29.79,SSW,203,5.0,5.0,89,0.00,,,0.00,meteohub,2013-01-11 11:04:00,
2013-01-11 05:09:00,48.4,45.3,29.80,SW,225,4.0,4.0,89,0.00,,,0.00,meteohub,2013-01-11 11:09:00,
2013-01-11 05:14:00,48.4,45.3,29.80,SSW,203,6.0,6.0,89,0.00,,,0.00,meteohub,2013-01-11 11:14:00,
2013-01-11 05:19:00,48.2,45.1,29.80,SW,225,5.0,7.0,89,0.00,,,0.00,meteohub,2013-01-11 11:19:00,
2013-01-11 05:24:00,48.2,45.1,29.80,SW,225,4.0,7.0,89,0.00,,,0.00,meteohub,2013-01-11 11:24:00,
2013-01-11 05:29:00,48.4,45.3,29.80,South,180,0.0,7.0,89,0.00,,,0.00,meteohub,2013-01-11 11:29:00,
2013-01-11 05:34:00,48.2,45.1,29.80,SW,225,3.0,7.0,89,0.00,,,0.00,meteohub,2013-01-11 11:34:00,
2013-01-11 05:39:00,47.8,44.8,29.80,South,180,3.0,6.0,89,0.00,,,0.00,meteohub,2013-01-11 11:39:00,
2013-01-11 05:44:00,47.8,44.8,29.80,SW,225,4.0,4.0,89,0.00,,,0.00,meteohub,2013-01-11 11:44:00,
2013-01-11 05:49:00,47.7,44.6,29.81,SSW,203,4.0,4.0,89,0.00,,,0.00,meteohub,2013-01-11 11:49:00,
2013-01-11 05:54:00,47.7,44.6,29.81,South,180,3.0,6.0,89,0.00,,,0.00,meteohub,2013-01-11 11:54:00,
2013-01-11 05:59:00,47.3,44.2,29.81,SE,135,0.0,6.0,89,0.00,,,0.00,meteohub,2013-01-11 11:59:00,
2013-01-11 06:04:00,47.3,44.2,29.81,South,180,0.0,5.0,89,0.00,,,0.00,meteohub,2013-01-11 12:04:00,
2013-01-11 06:09:00,47.1,44.1,29.79,SSE,158,0.0,5.0,89,0.00,,,0.00,meteohub,2013-01-11 12:09:00,
2013-01-11 06:14:00,47.1,44.1,29.79,SE,135,1.0,5.0,89,0.00,,,0.00,meteohub,2013-01-11 12:14:00,
2013-01-11 06:19:00,46.9,43.9,29.79,SE,135,0.0,1.0,89,0.00,,,0.00,meteohub,2013-01-11 12:19:00,
2013-01-11 06:24:00,46.9,43.9,29.79,SE,135,0.0,1.0,89,0.00,,,0.00,meteohub,2013-01-11 12:24:00,
2013-01-11 06:29:00,46.9,43.9,29.79,SE,135,0.0,2.0,89,0.00,,,0.00,meteohub,2013-01-11 12:29:00,
2013-01-11 06:34:00,46.6,43.5,29.79,SSW,203,1.0,2.0,89,0.00,,,0.00,meteohub,2013-01-11 12:34:00,
2013-01-11 06:39:00,46.4,43.3,29.79,SE,135,0.0,2.0,89,0.00,,,0.00,meteohub,2013-01-11 12:39:00,
2013-01-11 06:44:00,46.4,43.3,29.79,SE,135,0.0,1.0,89,0.00,,,0.00,meteohub,2013-01-11 12:44:00,
2013-01-11 06:49:00,46.2,43.2,29.81,SE,135,2.0,2.0,89,0.00,,,0.00,meteohub,2013-01-11 12:49:00,
2013-01-11 06:54:00,46.0,43.0,29.81,SE,135,0.0,0.0,89,0.00,,,0.00,meteohub,2013-01-11 12:54:00,
2013-01-11 06:59:00,45.9,42.8,29.81,SE,135,0.0,2.0,89,0.00,,,0.00,meteohub,2013-01-11 12:59:00,
2013-01-11 07:04:00,45.7,42.6,29.81,ESE,113,0.0,2.0,89,0.00,,,0.00,meteohub,2013-01-11 13:04:00,
2013-01-11 07:09:00,45.7,43.0,29.83,ESE,113,4.0,4.0,90,0.00,,,0.00,meteohub,2013-01-11 13:09:00,
2013-01-11 07:14:00,45.7,43.0,29.83,SE,135,2.0,3.0,90,0.00,,,0.00,meteohub,2013-01-11 13:14:00,
2013-01-11 07:19:00,45.9,43.2,29.83,SE,135,2.0,4.0,90,0.00,,,0.00,meteohub,2013-01-11 13:19:00,
2013-01-11 07:25:00,46.2,43.5,29.83,ESE,113,3.0,4.0,90,0.00,,,0.00,meteohub,2013-01-11 13:25:00,
2013-01-11 07:30:00,46.0,43.3,29.86,SE,135,0.0,4.0,90,0.00,,,0.00,meteohub,2013-01-11 13:30:00,
2013-01-11 07:35:00,46.2,43.5,29.86,SE,135,1.0,3.0,90,0.00,,,0.00,meteohub,2013-01-11 13:35:00,
2013-01-11 07:40:00,46.2,43.5,29.86,SSE,158,1.0,3.0,90,0.00,,,0.00,meteohub,2013-01-11 13:40:00,
2013-01-11 07:45:00,46.0,43.3,29.86,SE,135,2.0,2.0,90,0.00,,,0.00,meteohub,2013-01-11 13:45:00,
2013-01-11 07:50:00,46.2,43.5,29.86,SE,135,1.0,2.0,90,0.00,,,0.00,meteohub,2013-01-11 13:50:00,
2013-01-11 07:55:00,46.4,43.7,29.86,SSE,158,2.0,2.0,90,0.00,,,0.00,meteohub,2013-01-11 13:55:00,
2013-01-11 08:00:00,46.4,43.7,29.86,SE,135,2.0,3.0,90,0.00,,,0.00,meteohub,2013-01-11 14:00:00,
2013-01-11 08:05:00,46.6,43.9,29.86,SSE,158,2.0,3.0,90,0.00,,,0.00,meteohub,2013-01-11 14:05:00,
2013-01-11 08:10:00,46.6,43.9,29.84,SE,135,2.0,3.0,90,0.00,,,0.00,meteohub,2013-01-11 14:10:00,
2013-01-11 08:15:00,46.8,44.1,29.84,ENE,68,4.0,4.0,90,0.00,,,0.00,meteohub,2013-01-11 14:15:00,
2013-01-11 08:20:00,46.9,44.2,29.84,SE,135,2.0,3.0,90,0.00,,,0.00,meteohub,2013-01-11 14:20:00,
2013-01-11 08:25:00,47.1,44.4,29.84,SSE,158,2.0,4.0,90,0.00,,,0.00,meteohub,2013-01-11 14:25:00,
2013-01-11 08:30:00,47.5,44.8,29.82,SE,135,4.0,4.0,90,0.00,,,0.00,meteohub,2013-01-11 14:30:00,
2013-01-11 08:35:00,47.7,45.0,29.81,SE,135,3.0,4.0,90,0.00,,,0.00,meteohub,2013-01-11 14:35:00,
2013-01-11 08:40:00,47.8,45.0,29.81,SE,135,3.0,5.0,90,0.00,,,0.00,meteohub,2013-01-11 14:40:00,
2013-01-11 08:45:00,47.8,45.0,29.81,SE,135,3.0,8.0,90,0.00,,,0.00,meteohub,2013-01-11 14:45:00,
2013-01-11 08:50:00,48.2,45.3,29.81,SSE,158,3.0,8.0,90,0.00,,,0.00,meteohub,2013-01-11 14:50:00,
2013-01-11 08:55:00,48.4,45.5,29.80,ESE,113,2.0,4.0,90,0.00,,,0.00,meteohub,2013-01-11 14:55:00,
2013-01-11 09:00:00,48.4,45.5,29.80,SE,135,2.0,4.0,90,0.00,,,0.00,meteohub,2013-01-11 15:00:00,
2013-01-11 09:05:00,48.9,46.0,29.80,South,180,4.0,4.0,90,0.00,,,0.00,meteohub,2013-01-11 15:05:00,
2013-01-11 09:10:00,49.3,46.4,29.80,SE,135,3.0,4.0,90,0.00,,,0.00,meteohub,2013-01-11 15:10:00,
2013-01-11 09:15:00,49.8,46.8,29.79,SSE,158,4.0,4.0,89,0.00,,,0.00,meteohub,2013-01-11 15:15:00,
2013-01-11 09:20:00,50.0,46.9,29.79,SSE,158,3.0,4.0,89,0.00,,,0.00,meteohub,2013-01-11 15:20:00,
2013-01-11 09:25:00,50.5,47.5,29.79,SE,135,2.0,6.0,89,0.00,,,0.00,meteohub,2013-01-11 15:25:00,
2013-01-11 09:30:00,50.9,47.5,29.81,SSW,203,5.0,6.0,88,0.00,,,0.00,meteohub,2013-01-11 15:30:00,
2013-01-11 09:35:00,50.7,47.3,29.81,SW,225,8.0,8.0,88,0.00,,,0.00,meteohub,2013-01-11 15:35:00,
2013-01-11 09:40:00,51.1,47.3,29.81,South,180,5.0,8.0,87,0.00,,,0.00,meteohub,2013-01-11 15:40:00,
2013-01-11 09:45:00,51.3,47.5,29.81,SSE,158,2.0,8.0,87,0.00,,,0.00,meteohub,2013-01-11 15:45:00,
2013-01-11 09:50:00,51.4,47.7,29.82,SSW,203,6.0,6.0,87,0.00,,,0.00,meteohub,2013-01-11 15:50:00,
2013-01-11 09:55:00,52.0,47.8,29.81,SSW,203,5.0,6.0,86,0.00,,,0.00,meteohub,2013-01-11 15:55:00,
2013-01-11 10:00:00,52.5,48.4,29.81,SE,135,5.0,6.0,86,0.00,,,0.00,meteohub,2013-01-11 16:00:00,
2013-01-11 10:05:00,52.7,48.0,29.81,NNE,23,2.0,13.0,84,0.00,,,0.00,meteohub,2013-01-11 16:05:00,
2013-01-11 10:10:00,52.5,47.8,29.81,South,180,10.0,13.0,84,0.00,,,0.00,meteohub,2013-01-11 16:10:00,
2013-01-11 10:15:00,52.7,48.0,29.81,South,180,4.0,13.0,84,0.00,,,0.00,meteohub,2013-01-11 16:15:00,
2013-01-11 10:20:00,52.9,47.8,29.81,SSE,158,9.0,10.0,83,0.00,,,0.00,meteohub,2013-01-11 16:20:00,
2013-01-11 10:25:00,53.1,48.0,29.81,SE,135,6.0,14.0,83,0.00,,,0.00,meteohub,2013-01-11 16:25:00,
2013-01-11 10:30:00,53.6,48.2,29.81,SE,135,2.0,14.0,82,0.00,,,0.00,meteohub,2013-01-11 16:30:00,
2013-01-11 10:35:00,53.8,48.4,29.81,SE,135,5.0,14.0,82,0.00,,,0.00,meteohub,2013-01-11 16:35:00,
2013-01-11 10:40:00,54.0,48.2,29.81,SE,135,3.0,6.0,81,0.00,,,0.00,meteohub,2013-01-11 16:40:00,
2013-01-11 10:45:00,54.1,48.4,29.81,SSW,203,8.0,10.0,81,0.00,,,0.00,meteohub,2013-01-11 16:45:00,
2013-01-11 10:50:00,54.3,48.6,29.82,South,180,13.0,13.0,81,0.00,,,0.00,meteohub,2013-01-11 16:50:00,
2013-01-11 10:55:00,55.0,49.3,29.82,South,180,10.0,13.0,81,0.00,,,0.00,meteohub,2013-01-11 16:55:00,
2013-01-11 11:00:00,55.2,49.1,29.82,SE,135,3.0,13.0,80,0.00,,,0.00,meteohub,2013-01-11 17:00:00,
2013-01-11 11:05:00,55.6,49.1,29.82,SW,225,7.0,12.0,79,0.00,,,0.00,meteohub,2013-01-11 17:05:00,
2013-01-11 11:10:00,55.8,49.3,29.80,SSE,158,5.0,12.0,79,0.00,,,0.00,meteohub,2013-01-11 17:10:00,
2013-01-11 11:15:00,56.1,49.3,29.80,SSW,203,14.0,14.0,78,0.00,,,0.00,meteohub,2013-01-11 17:15:00,
2013-01-11 11:20:00,56.3,49.1,29.80,South,180,5.0,14.0,77,0.00,,,0.00,meteohub,2013-01-11 17:20:00,
2013-01-11 11:25:00,56.5,49.3,29.80,SE,135,11.0,14.0,77,0.00,,,0.00,meteohub,2013-01-11 17:25:00,
2013-01-11 11:30:00,56.7,49.1,29.79,SSW,203,9.0,14.0,76,0.00,,,0.00,meteohub,2013-01-11 17:30:00,
2013-01-11 11:35:00,57.2,49.3,29.79,SSW,203,13.0,17.0,75,0.00,,,0.00,meteohub,2013-01-11 17:35:00,
2013-01-11 11:40:00,57.4,49.5,29.79,SSW,203,13.0,17.0,75,0.00,,,0.00,meteohub,2013-01-11 17:40:00,
2013-01-11 11:45:00,57.9,49.6,29.79,South,180,7.0,17.0,74,0.00,,,0.00,meteohub,2013-01-11 17:45:00,
2013-01-11 11:50:00,58.3,50.0,29.77,South,180,4.0,15.0,74,0.00,,,0.00,meteohub,2013-01-11 17:50:00,
2013-01-11 11:55:00,58.8,49.8,29.77,South,180,4.0,15.0,72,0.00,,,0.00,meteohub,2013-01-11 17:55:00,
2013-01-11 12:00:00,59.4,50.4,29.77,South,180,2.0,13.0,72,0.00,,,0.00,meteohub,2013-01-11 18:00:00,
2013-01-11 12:05:00,59.9,50.2,29.77,South,180,18.0,18.0,70,0.00,,,0.00,meteohub,2013-01-11 18:05:00,
2013-01-11 12:10:00,60.1,49.8,29.76,South,180,11.0,18.0,69,0.00,,,0.00,meteohub,2013-01-11 18:10:00,
2013-01-11 12:15:00,60.4,50.5,29.76,SSW,203,6.0,18.0,70,0.00,,,0.00,meteohub,2013-01-11 18:15:00,
2013-01-11 12:20:00,60.6,50.0,29.76,SSE,158,8.0,18.0,68,0.00,,,0.00,meteohub,2013-01-11 18:20:00,
2013-01-11 12:25:00,60.8,50.2,29.76,South,180,9.0,12.0,68,0.00,,,0.00,meteohub,2013-01-11 18:25:00,
2013-01-11 12:30:00,61.2,50.2,29.74,SE,135,16.0,16.0,67,0.00,,,0.00,meteohub,2013-01-11 18:30:00,
2013-01-11 12:35:00,61.3,50.4,29.74,SSE,158,11.0,16.0,67,0.00,,,0.00,meteohub,2013-01-11 18:35:00,
2013-01-11 12:40:00,61.5,50.5,29.74,SW,225,14.0,16.0,67,0.00,,,0.00,meteohub,2013-01-11 18:40:00,
2013-01-11 12:45:00,62.1,50.9,29.73,SSW,203,11.0,15.0,67,0.00,,,0.00,meteohub,2013-01-11 18:45:00,
2013-01-11 12:50:00,62.4,50.9,29.73,WSW,248,6.0,15.0,66,0.00,,,0.00,meteohub,2013-01-11 18:50:00,
2013-01-11 12:55:00,62.8,50.4,29.73,SW,225,10.0,15.0,64,0.00,,,0.00,meteohub,2013-01-11 18:55:00,
2013-01-11 13:00:00,63.3,50.5,29.73,SSW,203,11.0,12.0,63,0.00,,,0.00,meteohub,2013-01-11 19:00:00,
2013-01-11 13:05:00,63.3,50.0,29.73,WSW,248,12.0,12.0,62,0.00,,,0.00,meteohub,2013-01-11 19:05:00,
2013-01-11 13:10:00,63.7,50.4,29.73,SSW,203,16.0,18.0,62,0.00,,,0.00,meteohub,2013-01-11 19:10:00,
2013-01-11 13:15:00,63.9,49.6,29.73,SW,225,14.0,18.0,60,0.00,,,0.00,meteohub,2013-01-11 19:15:00,
2013-01-11 13:20:00,63.7,49.5,29.73,NW,315,7.0,18.0,60,0.00,,,0.00,meteohub,2013-01-11 19:20:00,
2013-01-11 13:25:00,63.9,49.6,29.73,South,180,8.0,18.0,60,0.00,,,0.00,meteohub,2013-01-11 19:25:00,
2013-01-11 13:30:00,63.7,49.5,29.74,SW,225,8.0,18.0,60,0.00,,,0.00,meteohub,2013-01-11 19:30:00,
2013-01-11 13:35:00,64.4,50.2,29.74,SW,225,13.0,13.0,60,0.00,,,0.00,meteohub,2013-01-11 19:35:00,
2013-01-11 13:40:00,64.4,48.9,29.74,SW,225,17.0,17.0,57,0.00,,,0.00,meteohub,2013-01-11 19:40:00,
2013-01-11 13:45:00,64.2,48.2,29.74,SSW,203,17.0,23.0,56,0.00,,,0.00,meteohub,2013-01-11 19:45:00,
2013-01-11 13:50:00,64.2,48.7,29.72,South,180,4.0,23.0,57,0.00,,,0.00,meteohub,2013-01-11 19:50:00,
2013-01-11 13:55:00,64.2,48.7,29.72,SW,225,11.0,17.0,57,0.00,,,0.00,meteohub,2013-01-11 19:55:00,
2013-01-11 14:00:00,64.2,49.1,29.72,SW,225,11.0,17.0,58,0.00,,,0.00,meteohub,2013-01-11 20:00:00,
2013-01-11 14:05:00,64.2,49.1,29.72,SW,225,10.0,13.0,58,0.00,,,0.00,meteohub,2013-01-11 20:05:00,
2013-01-11 14:10:00,64.0,49.5,29.71,SSW,203,5.0,13.0,59,0.00,,,0.00,meteohub,2013-01-11 20:10:00,
2013-01-11 14:15:00,64.2,49.6,29.71,SW,225,2.0,15.0,59,0.00,,,0.00,meteohub,2013-01-11 20:15:00,
2013-01-11 14:20:00,64.2,49.1,29.71,SW,225,13.0,15.0,58,0.00,,,0.00,meteohub,2013-01-11 20:20:00,
2013-01-11 14:25:00,64.0,48.9,29.71,SW,225,11.0,15.0,58,0.00,,,0.00,meteohub,2013-01-11 20:25:00,
2013-01-11 14:30:00,64.0,48.9,29.69,South,180,11.0,13.0,58,0.00,,,0.00,meteohub,2013-01-11 20:30:00,
2013-01-11 14:35:00,64.2,49.1,29.69,SSE,158,12.0,12.0,58,0.00,,,0.00,meteohub,2013-01-11 20:35:00,
2013-01-11 14:40:00,64.2,48.7,29.69,ESE,113,3.0,12.0,57,0.00,,,0.00,meteohub,2013-01-11 20:40:00,
2013-01-11 14:45:00,64.2,48.7,29.69,ENE,68,6.0,12.0,57,0.00,,,0.00,meteohub,2013-01-11 20:45:00,
2013-01-11 14:50:00,64.4,48.9,29.71,South,180,3.0,12.0,57,0.00,,,0.00,meteohub,2013-01-11 20:50:00,
2013-01-11 14:55:00,64.4,48.9,29.71,SW,225,10.0,11.0,57,0.00,,,0.00,meteohub,2013-01-11 20:55:00,
2013-01-11 15:00:00,64.6,48.9,29.71,SSW,203,11.0,11.0,57,0.00,,,0.00,meteohub,2013-01-11 21:00:00,
2013-01-11 15:05:00,64.6,48.9,29.71,ESE,113,3.0,11.0,57,0.00,,,0.00,meteohub,2013-01-11 21:05:00,
2013-01-11 15:10:00,64.8,48.7,29.71,SE,135,6.0,11.0,56,0.00,,,0.00,meteohub,2013-01-11 21:10:00,
2013-01-11 15:15:00,64.8,48.7,29.71,NE,45,12.0,12.0,56,0.00,,,0.00,meteohub,2013-01-11 21:15:00,
2013-01-11 15:20:00,64.8,48.2,29.71,SE,135,4.0,12.0,55,0.00,,,0.00,meteohub,2013-01-11 21:20:00,
2013-01-11 15:25:00,64.9,48.9,29.71,SE,135,12.0,12.0,56,0.00,,,0.00,meteohub,2013-01-11 21:25:00,
2013-01-11 15:30:00,65.1,48.6,29.70,NNW,338,5.0,12.0,55,0.00,,,0.00,meteohub,2013-01-11 21:30:00,
2013-01-11 15:35:00,65.3,48.2,29.70,SSE,158,5.0,14.0,54,0.00,,,0.00,meteohub,2013-01-11 21:35:00,
2013-01-11 15:40:00,65.3,48.2,29.70,SE,135,10.0,14.0,54,0.00,,,0.00,meteohub,2013-01-11 21:40:00,
2013-01-11 15:45:00,65.3,48.2,29.70,SSE,158,2.0,10.0,54,0.00,,,0.00,meteohub,2013-01-11 21:45:00,
2013-01-11 15:50:00,65.5,48.4,29.70,South,180,5.0,10.0,54,0.00,,,0.00,meteohub,2013-01-11 21:50:00,
2013-01-11 15:55:00,65.5,47.8,29.70,South,180,8.0,8.0,53,0.00,,,0.00,meteohub,2013-01-11 21:55:00,
2013-01-11 16:00:00,65.3,48.2,29.70,SE,135,2.0,10.0,54,0.00,,,0.00,meteohub,2013-01-11 22:00:00,
2013-01-11 16:05:00,65.5,48.4,29.70,SSE,158,4.0,10.0,54,0.00,,,0.00,meteohub,2013-01-11 22:05:00,
2013-01-11 16:10:00,65.7,47.5,29.71,SSW,203,13.0,13.0,52,0.00,,,0.00,meteohub,2013-01-11 22:10:00,
2013-01-11 16:15:00,65.8,48.2,29.70,North,0,4.0,13.0,53,0.00,,,0.00,meteohub,2013-01-11 22:15:00,
2013-01-11 16:20:00,66.0,47.8,29.70,SSE,158,7.0,13.0,52,0.00,,,0.00,meteohub,2013-01-11 22:20:00,
2013-01-11 16:25:00,65.8,47.1,29.70,South,180,11.0,13.0,51,0.00,,,0.00,meteohub,2013-01-11 22:25:00,
2013-01-11 16:30:00,65.8,47.7,29.70,SW,225,9.0,11.0,52,0.00,,,0.00,meteohub,2013-01-11 22:30:00,
2013-01-11 16:35:00,65.5,47.8,29.71,SE,135,1.0,11.0,53,0.00,,,0.00,meteohub,2013-01-11 22:35:00,
2013-01-11 16:40:00,65.3,47.7,29.71,SSE,158,2.0,11.0,53,0.00,,,0.00,meteohub,2013-01-11 22:40:00,
2013-01-11 16:46:00,65.1,47.5,29.71,ESE,113,2.0,5.0,53,0.00,,,0.00,meteohub,2013-01-11 22:46:00,
2013-01-11 16:51:00,65.3,47.7,29.71,SE,135,2.0,5.0,53,0.00,,,0.00,meteohub,2013-01-11 22:51:00,
2013-01-11 16:56:00,64.9,47.8,29.71,SE,135,1.0,5.0,54,0.00,,,0.00,meteohub,2013-01-11 22:56:00,
2013-01-11 17:01:00,64.4,47.5,29.71,South,180,2.0,2.0,54,0.00,,,0.00,meteohub,2013-01-11 23:01:00,
2013-01-11 17:06:00,64.2,47.3,29.71,SSE,158,1.0,2.0,54,0.00,,,0.00,meteohub,2013-01-11 23:06:00,
2013-01-11 17:11:00,63.9,47.3,29.68,SSW,203,6.0,6.0,55,0.00,,,0.00,meteohub,2013-01-11 23:11:00,
2013-01-11 17:16:00,63.5,47.1,29.68,SSE,158,2.0,6.0,55,0.00,,,0.00,meteohub,2013-01-11 23:16:00,
2013-01-11 17:21:00,63.0,46.6,29.68,South,180,5.0,11.0,55,0.00,,,0.00,meteohub,2013-01-11 23:21:00,
2013-01-11 17:26:00,63.0,46.6,29.68,South,180,4.0,11.0,55,0.00,,,0.00,meteohub,2013-01-11 23:26:00,
2013-01-11 17:31:00,62.6,46.2,29.68,SE,135,4.0,9.0,55,0.00,,,0.00,meteohub,2013-01-11 23:31:00,
2013-01-11 17:36:00,62.8,46.4,29.68,ENE,68,3.0,6.0,55,0.00,,,0.00,meteohub,2013-01-11 23:36:00,
2013-01-11 17:41:00,62.6,46.2,29.68,ESE,113,2.0,6.0,55,0.00,,,0.00,meteohub,2013-01-11 23:41:00,
2013-01-11 17:46:00,62.6,46.2,29.68,South,180,6.0,6.0,55,0.00,,,0.00,meteohub,2013-01-11 23:46:00,
2013-01-11 17:51:00,62.4,46.0,29.68,South,180,3.0,8.0,55,0.00,,,0.00,meteohub,2013-01-11 23:51:00,
2013-01-11 17:56:00,62.2,45.9,29.68,South,180,5.0,8.0,55,0.00,,,0.00,meteohub,2013-01-11 23:56:00,
2013-01-11 18:01:00,62.2,45.9,29.68,SSE,158,2.0,10.0,55,0.00,,,0.00,meteohub,2013-01-12 00:01:00,
2013-01-11 18:06:00,61.9,45.5,29.68,SE,135,5.0,10.0,55,0.00,,,0.00,meteohub,2013-01-12 00:06:00,
2013-01-11 18:11:00,61.9,46.0,29.69,SSE,158,5.0,10.0,56,0.00,,,0.00,meteohub,2013-01-12 00:11:00,
2013-01-11 18:16:00,61.7,45.9,29.69,South,180,9.0,15.0,56,0.00,,,0.00,meteohub,2013-01-12 00:16:00,
2013-01-11 18:21:00,61.5,45.7,29.69,South,180,4.0,15.0,56,0.00,,,0.00,meteohub,2013-01-12 00:21:00,
2013-01-11 18:26:00,61.5,45.7,29.69,SSE,158,4.0,15.0,56,0.00,,,0.00,meteohub,2013-01-12 00:26:00,
2013-01-11 18:31:00,61.5,45.7,29.68,WSW,248,4.0,9.0,56,0.00,,,0.00,meteohub,2013-01-12 00:31:00,
2013-01-11 18:36:00,61.2,45.3,29.68,SSE,158,2.0,8.0,56,0.00,,,0.00,meteohub,2013-01-12 00:36:00,
2013-01-11 18:41:00,61.3,46.0,29.68,SE,135,2.0,4.0,57,0.00,,,0.00,meteohub,2013-01-12 00:41:00,
2013-01-11 18:46:00,60.8,45.5,29.68,ESE,113,5.0,5.0,57,0.00,,,0.00,meteohub,2013-01-12 00:46:00,
2013-01-11 18:51:00,60.6,45.7,29.69,South,180,8.0,8.0,58,0.00,,,0.00,meteohub,2013-01-12 00:51:00,
2013-01-11 18:56:00,60.3,45.9,29.69,SE,135,2.0,8.0,59,0.00,,,0.00,meteohub,2013-01-12 00:56:00,
2013-01-11 19:01:00,59.9,46.0,29.69,SSE,158,3.0,8.0,60,0.00,,,0.00,meteohub,2013-01-12 01:01:00,
2013-01-11 19:06:00,59.9,46.0,29.69,South,180,2.0,8.0,60,0.00,,,0.00,meteohub,2013-01-12 01:06:00,
2013-01-11 19:11:00,59.4,45.9,29.69,NW,315,2.0,5.0,61,0.00,,,0.00,meteohub,2013-01-12 01:11:00,
2013-01-11 19:16:00,59.2,45.7,29.69,East,90,3.0,5.0,61,0.00,,,0.00,meteohub,2013-01-12 01:16:00,
2013-01-11 19:21:00,59.0,45.5,29.69,SE,135,2.0,5.0,61,0.00,,,0.00,meteohub,2013-01-12 01:21:00,
2013-01-11 19:26:00,58.8,45.9,29.69,South,180,2.0,4.0,62,0.00,,,0.00,meteohub,2013-01-12 01:26:00,
2013-01-11 19:31:00,58.8,45.9,29.71,SE,135,2.0,4.0,62,0.00,,,0.00,meteohub,2013-01-12 01:31:00,
2013-01-11 19:36:00,58.5,45.9,29.71,ENE,68,1.0,4.0,63,0.00,,,0.00,meteohub,2013-01-12 01:36:00,
2013-01-11 19:41:00,58.5,45.9,29.71,ESE,113,4.0,4.0,63,0.00,,,0.00,meteohub,2013-01-12 01:41:00,
2013-01-11 19:46:00,58.5,46.4,29.71,SSE,158,3.0,4.0,64,0.00,,,0.00,meteohub,2013-01-12 01:46:00,
2013-01-11 19:51:00,58.3,46.2,29.70,SE,135,0.0,4.0,64,0.00,,,0.00,meteohub,2013-01-12 01:51:00,
2013-01-11 19:57:00,57.9,45.9,29.70,South,180,2.0,4.0,64,0.00,,,0.00,meteohub,2013-01-12 01:57:00,
2013-01-11 20:02:00,57.9,45.9,29.70,WSW,248,9.0,9.0,64,0.00,,,0.00,meteohub,2013-01-12 02:02:00,
2013-01-11 20:07:00,57.9,45.9,29.70,SE,135,2.0,9.0,64,0.00,,,0.00,meteohub,2013-01-12 02:07:00,
2013-01-11 20:12:00,57.9,45.9,29.71,SE,135,2.0,9.0,64,0.00,,,0.00,meteohub,2013-01-12 02:12:00,
2013-01-11 20:17:00,57.7,46.0,29.71,SE,135,2.0,9.0,65,0.00,,,0.00,meteohub,2013-01-12 02:17:00,
2013-01-11 20:22:00,57.7,46.0,29.71,SE,135,2.0,2.0,65,0.00,,,0.00,meteohub,2013-01-12 02:22:00,
2013-01-11 20:27:00,57.6,45.9,29.71,North,-999,-999.0,2.0,65,0.00,,,0.00,meteohub,2013-01-12 02:27:00,
2013-01-11 20:32:00,57.7,46.0,29.72,North,-999,-999.0,2.0,65,0.00,,,0.00,meteohub,2013-01-12 02:32:00,
2013-01-11 20:37:00,57.4,45.7,29.72,North,-999,-999.0,-999.0,65,0.00,,,0.00,meteohub,2013-01-12 02:37:00,
2013-01-11 20:42:00,57.2,45.9,29.72,SSE,158,2.0,-999.0,66,0.00,,,0.00,meteohub,2013-01-12 02:42:00,
2013-01-11 20:47:00,57.4,46.0,29.72,ESE,113,2.0,2.0,66,0.00,,,0.00,meteohub,2013-01-12 02:47:00,
2013-01-11 20:52:00,57.2,45.9,29.74,SW,225,4.0,7.0,66,0.00,,,0.00,meteohub,2013-01-12 02:52:00,
2013-01-11 20:57:00,57.2,45.9,29.74,SE,135,2.0,7.0,66,0.00,,,0.00,meteohub,2013-01-12 02:57:00,
2013-01-11 21:02:00,57.0,45.9,29.74,SE,135,4.0,7.0,66,0.00,,,0.00,meteohub,2013-01-12 03:02:00,
2013-01-11 21:07:00,57.0,45.9,29.74,SE,135,2.0,4.0,66,0.00,,,0.00,meteohub,2013-01-12 03:07:00,
2013-01-11 21:12:00,57.0,46.2,29.73,SE,135,1.0,4.0,67,0.00,,,0.00,meteohub,2013-01-12 03:12:00,
2013-01-11 21:17:00,56.8,46.0,29.73,ESE,113,3.0,4.0,67,0.00,,,0.00,meteohub,2013-01-12 03:17:00,
2013-01-11 21:22:00,56.7,45.9,29.73,SE,135,2.0,4.0,67,0.00,,,0.00,meteohub,2013-01-12 03:22:00,
2013-01-11 21:27:00,56.7,45.9,29.73,SSE,158,2.0,4.0,67,0.00,,,0.00,meteohub,2013-01-12 03:27:00,
2013-01-11 21:32:00,56.7,45.9,29.75,ENE,68,1.0,3.0,67,0.00,,,0.00,meteohub,2013-01-12 03:32:00,
2013-01-11 21:37:00,56.5,45.7,29.75,SSE,158,4.0,4.0,67,0.00,,,0.00,meteohub,2013-01-12 03:37:00,
2013-01-11 21:42:00,56.3,45.9,29.75,East,90,2.0,4.0,68,0.00,,,0.00,meteohub,2013-01-12 03:42:00,
2013-01-11 21:47:00,56.1,45.7,29.75,SE,135,1.0,4.0,68,0.00,,,0.00,meteohub,2013-01-12 03:47:00,
2013-01-11 21:52:00,56.3,45.9,29.74,SSE,158,2.0,4.0,68,0.00,,,0.00,meteohub,2013-01-12 03:52:00,
2013-01-11 21:57:00,56.1,45.7,29.75,ESE,113,2.0,3.0,68,0.00,,,0.00,meteohub,2013-01-12 03:57:00,
2013-01-11 22:02:00,55.9,45.9,29.75,SSW,203,0.0,3.0,69,0.00,,,0.00,meteohub,2013-01-12 04:02:00,
2013-01-11 22:07:00,55.9,45.9,29.75,SE,135,2.0,3.0,69,0.00,,,0.00,meteohub,2013-01-12 04:07:00,
2013-01-11 22:12:00,55.8,45.7,29.75,SE,135,0.0,2.0,69,0.00,,,0.00,meteohub,2013-01-12 04:12:00,
2013-01-11 22:17:00,55.8,45.7,29.75,SE,135,2.0,2.0,69,0.00,,,0.00,meteohub,2013-01-12 04:17:00,
2013-01-11 22:22:00,55.6,45.5,29.75,SE,135,2.0,2.0,69,0.00,,,0.00,meteohub,2013-01-12 04:22:00,
2013-01-11 22:27:00,55.6,46.0,29.75,SSE,158,1.0,2.0,70,0.00,,,0.00,meteohub,2013-01-12 04:27:00,
2013-01-11 22:32:00,55.4,45.9,29.76,SE,135,0.0,5.0,70,0.00,,,0.00,meteohub,2013-01-12 04:32:00,
2013-01-11 22:37:00,55.2,45.7,29.76,ESE,113,4.0,5.0,70,0.00,,,0.00,meteohub,2013-01-12 04:37:00,
2013-01-11 22:42:00,55.0,45.5,29.76,SSE,158,2.0,5.0,70,0.00,,,0.00,meteohub,2013-01-12 04:42:00,
2013-01-11 22:47:00,55.0,45.5,29.76,SE,135,2.0,4.0,70,0.00,,,0.00,meteohub,2013-01-12 04:47:00,
2013-01-11 22:52:00,55.0,45.5,29.76,SE,135,3.0,4.0,70,0.00,,,0.00,meteohub,2013-01-12 04:52:00,
2013-01-11 22:57:00,55.0,45.5,29.76,SSE,158,0.0,3.0,70,0.00,,,0.00,meteohub,2013-01-12 04:57:00,
2013-01-11 23:00:00,54.9,45.7,29.76,SSE,158,0.0,3.0,71,0.00,,,0.00,meteohub,2013-01-12 05:00:00,
2013-01-11 23:01:00,54.9,45.7,29.76,SSE,158,0.0,3.0,71,0.00,,,0.00,meteohub,2013-01-12 05:01:00,
2013-01-11 23:03:00,54.9,45.7,29.76,South,180,0.0,3.0,71,0.00,,,0.00,meteohub,2013-01-12 05:03:00,
2013-01-11 23:08:00,54.9,45.7,29.76,ESE,113,2.0,3.0,71,0.00,,,0.00,meteohub,2013-01-12 05:08:00,
2013-01-11 23:13:00,54.9,45.7,29.76,SE,135,1.0,2.0,71,0.00,,,0.00,meteohub,2013-01-12 05:13:00,
2013-01-11 23:18:00,54.9,45.7,29.76,SSE,158,1.0,2.0,71,0.00,,,0.00,meteohub,2013-01-12 05:18:00,
2013-01-11 23:23:00,54.9,46.0,29.76,SE,135,3.0,3.0,72,0.00,,,0.00,meteohub,2013-01-12 05:23:00,
2013-01-11 23:28:00,54.7,45.9,29.76,ESE,113,1.0,4.0,72,0.00,,,0.00,meteohub,2013-01-12 05:28:00,
2013-01-11 23:33:00,54.9,46.0,29.76,SE,135,2.0,4.0,72,0.00,,,0.00,meteohub,2013-01-12 05:33:00,
2013-01-11 23:38:00,54.7,45.9,29.76,SSE,158,2.0,4.0,72,0.00,,,0.00,meteohub,2013-01-12 05:38:00,
2013-01-11 23:43:00,54.5,45.7,29.76,SSW,203,2.0,4.0,72,0.00,,,0.00,meteohub,2013-01-12 05:43:00,
2013-01-11 23:48:00,54.5,45.7,29.76,SE,135,3.0,3.0,72,0.00,,,0.00,meteohub,2013-01-12 05:48:00,
2013-01-11 23:53:00,54.5,45.7,29.76,SE,135,2.0,3.0,72,0.00,,,0.00,meteohub,2013-01-12 05:53:00,
2013-01-11 23:58:00,54.5,45.7,29.76,SSE,158,2.0,3.0,72,0.00,,,0.00,meteohub,2013-01-12 05:58:00,